createdAt,value
2022-10-04T00:01:30.143Z,7.50
2022-10-04T00:06:34.001Z,8.50
2022-10-04T00:09:09.679Z,8.90
2022-10-04T00:11:39.969Z,9.38
2022-10-04T00:14:17.659Z,8.30
2022-10-04T00:16:45.991Z,8.80
2022-10-04T00:19:47.747Z,8.50
2022-10-04T00:22:22.182Z,9.98
2022-10-04T00:25:20.664Z,8.90
2022-10-04T00:28:33.076Z,9.13
2022-10-04T00:31:22.953Z,8.80
2022-10-04T00:33:54.472Z,9.48
2022-10-04T00:36:48.330Z,9.13
2022-10-04T00:39:43.145Z,9.13
2022-10-04T00:42:47.756Z,9.00
2022-10-04T00:45:33.857Z,8.93
2022-10-04T00:48:32.731Z,10.15
2022-10-04T00:51:12.707Z,9.27
2022-10-04T00:53:51.871Z,8.85
2022-10-04T00:56:28.927Z,9.80
2022-10-04T00:59:31.982Z,10.48
2022-10-04T01:02:06.866Z,10.40
2022-10-04T01:04:44.360Z,11.15
2022-10-04T01:07:17.471Z,10.95
2022-10-04T01:09:53.225Z,10.65
2022-10-04T01:12:37.470Z,10.50
2022-10-04T01:15:12.183Z,11.60
2022-10-04T01:17:40.599Z,11.20
2022-10-04T01:20:36.239Z,10.63
2022-10-04T01:23:06.431Z,10.73
2022-10-04T01:25:50.074Z,10.57
2022-10-04T01:28:18.871Z,11.07
2022-10-04T01:30:47.750Z,11.18
2022-10-04T01:33:16.046Z,11.18
2022-10-04T01:35:44.731Z,11.27
2022-10-04T01:38:14.412Z,10.93
2022-10-04T01:40:48.360Z,11.02
2022-10-04T01:43:23.714Z,11.13
2022-10-04T01:45:57.887Z,10.63
2022-10-04T01:48:33.696Z,10.57
2022-10-04T01:51:07.117Z,11.75
2022-10-04T01:53:45.887Z,10.95
2022-10-04T01:56:17.924Z,11.23
2022-10-04T01:58:49.983Z,12.35
2022-10-04T02:01:26.478Z,11.82
2022-10-04T02:04:00.486Z,11.85
2022-10-04T02:06:30.335Z,12.45
2022-10-04T02:09:00.359Z,13.83
2022-10-04T02:11:33.109Z,14.52
2022-10-04T02:14:01.563Z,14.77
2022-10-04T02:16:30.181Z,15.13
2022-10-04T02:18:59.533Z,15.13
2022-10-04T02:21:28.014Z,13.93
2022-10-04T02:23:57.211Z,14.82
2022-10-04T02:26:27.246Z,15.27
2022-10-04T02:28:55.569Z,15.77
2022-10-04T02:31:43.001Z,15.25
2022-10-04T02:34:12.006Z,15.57
2022-10-04T02:36:41.125Z,15.88
2022-10-04T02:39:16.499Z,15.88
2022-10-04T02:41:52.352Z,14.68
2022-10-04T02:44:27.695Z,15.38
2022-10-04T02:47:04.634Z,14.93
2022-10-04T02:49:38.068Z,14.13
2022-10-04T02:52:10.235Z,13.52
2022-10-04T02:54:45.147Z,13.80
2022-10-04T02:57:21.247Z,13.02
2022-10-04T02:59:50.763Z,13.25
2022-10-04T03:02:30.126Z,13.48
2022-10-04T03:05:07.013Z,13.68
2022-10-04T03:07:37.623Z,13.13
2022-10-04T03:10:12.425Z,12.85
2022-10-04T03:12:42.482Z,12.80
2022-10-04T03:15:13.238Z,13.40
2022-10-04T03:20:12.206Z,13.93
2022-10-04T03:22:46.113Z,14.32
2022-10-04T03:25:21.607Z,14.82
2022-10-04T03:27:53.540Z,15.32
2022-10-04T03:30:21.845Z,14.90
2022-10-04T03:32:51.322Z,15.25
2022-10-04T03:35:30.184Z,15.18
2022-10-04T03:37:59.675Z,14.45
2022-10-04T03:40:32.484Z,15.95
2022-10-04T03:43:04.742Z,16.42
2022-10-04T03:45:35.149Z,16.75
2022-10-04T03:48:08.424Z,18.65
2022-10-04T03:50:46.959Z,18.63
2022-10-04T03:53:31.042Z,19.17
2022-10-04T03:56:04.239Z,18.02
2022-10-04T03:58:34.787Z,17.00
2022-10-04T04:01:24.875Z,17.35
2022-10-04T04:04:01.931Z,15.98
2022-10-04T04:06:38.608Z,15.57
2022-10-04T04:09:08.776Z,16.02
2022-10-04T04:11:38.019Z,15.73
2022-10-04T04:14:13.875Z,15.93
2022-10-04T04:16:42.321Z,15.35
2022-10-04T04:19:15.134Z,15.85
2022-10-04T04:21:44.450Z,16.50
2022-10-04T04:24:23.770Z,15.15
2022-10-04T04:26:57.491Z,15.25
2022-10-04T04:29:33.898Z,14.65
2022-10-04T04:32:05.816Z,14.35
2022-10-04T04:34:50.112Z,15.45
2022-10-04T04:37:18.335Z,16.35
2022-10-04T04:39:51.822Z,14.85
2022-10-04T04:42:27.486Z,15.90
2022-10-04T04:45:00.971Z,15.27
2022-10-04T04:47:33.843Z,15.65
2022-10-04T04:50:09.217Z,15.48
2022-10-04T04:52:38.778Z,15.85
2022-10-04T04:55:17.499Z,15.32
2022-10-04T04:57:45.934Z,16.05
2022-10-04T05:00:21.682Z,15.57
2022-10-04T05:02:58.549Z,15.90
2022-10-04T05:05:30.371Z,15.10
2022-10-04T05:08:20.698Z,16.33
2022-10-04T05:10:55.424Z,16.65
2022-10-04T05:13:26.068Z,16.10
2022-10-04T05:15:58.953Z,15.55
2022-10-04T05:18:32.047Z,16.67
2022-10-04T05:21:07.242Z,16.98
2022-10-04T05:23:36.134Z,16.50
2022-10-04T05:26:06.314Z,17.13
2022-10-04T05:28:34.870Z,16.75
2022-10-04T05:31:27.401Z,16.63
2022-10-04T05:33:58.965Z,17.30
2022-10-04T05:36:58.219Z,18.58
2022-10-04T05:39:32.144Z,17.45
2022-10-04T05:42:08.160Z,17.73
2022-10-04T05:44:40.202Z,17.85
2022-10-04T05:47:12.987Z,18.25
2022-10-04T05:49:45.103Z,18.63
2022-10-04T05:52:18.035Z,18.30
2022-10-04T05:54:46.292Z,20.02
2022-10-04T05:57:39.726Z,19.08
2022-10-04T06:00:17.878Z,18.27
2022-10-04T06:03:28.106Z,17.77
2022-10-04T06:06:00.337Z,18.25
2022-10-04T06:08:44.783Z,17.90
2022-10-04T06:11:40.554Z,19.73
2022-10-04T06:14:46.498Z,19.05
2022-10-04T06:17:42.551Z,18.75
2022-10-04T06:20:52.579Z,19.65
2022-10-04T06:23:21.689Z,19.60
2022-10-04T06:25:56.511Z,19.52
2022-10-04T06:28:31.293Z,19.77
2022-10-04T06:31:25.260Z,18.83
2022-10-04T06:34:22.916Z,19.77
2022-10-04T06:37:10.998Z,20.02
2022-10-04T06:40:26.887Z,20.80
2022-10-04T06:43:23.481Z,20.15
2022-10-04T06:46:08.891Z,19.50
2022-10-04T06:49:18.344Z,20.67
2022-10-04T06:52:13.474Z,18.52
2022-10-04T06:55:09.949Z,19.85
2022-10-04T06:58:16.730Z,18.58
2022-10-04T07:00:53.998Z,19.38
2022-10-04T07:03:29.782Z,20.15
2022-10-04T07:06:04.939Z,19.65
2022-10-04T07:08:43.050Z,18.88
2022-10-04T07:11:19.637Z,19.67
2022-10-04T07:13:57.667Z,18.98
2022-10-04T07:16:37.615Z,18.30
2022-10-04T07:19:26.547Z,17.88
2022-10-04T07:22:02.256Z,15.50
2022-10-04T07:24:47.283Z,16.40
2022-10-04T07:27:19.659Z,15.05
2022-10-04T07:29:53.181Z,15.65
2022-10-04T07:32:24.836Z,15.75
2022-10-04T07:35:00.259Z,15.25
2022-10-04T07:37:33.259Z,15.30
2022-10-04T07:40:11.131Z,15.75
2022-10-04T07:42:48.949Z,15.73
2022-10-04T07:45:24.193Z,14.43
2022-10-04T07:48:06.573Z,15.57
2022-10-04T07:50:41.029Z,16.27
2022-10-04T07:53:13.647Z,15.52
2022-10-04T07:55:54.967Z,15.65
2022-10-04T07:58:45.958Z,15.10
2022-10-04T08:01:28.334Z,14.95
2022-10-04T08:04:19.617Z,15.75
2022-10-04T08:06:59.309Z,15.15
2022-10-04T08:09:54.478Z,16.20
2022-10-04T08:12:31.288Z,16.15
2022-10-04T08:15:30.863Z,16.83
2022-10-04T08:18:07.097Z,16.02
2022-10-04T08:20:45.278Z,16.55
2022-10-04T08:23:55.783Z,16.95
2022-10-04T08:26:45.172Z,17.60
2022-10-04T08:29:42.780Z,16.27
2022-10-04T08:32:31.119Z,16.17
2022-10-04T08:35:20.297Z,15.68
2022-10-04T08:38:05.070Z,15.80
2022-10-04T08:41:26.843Z,16.30
2022-10-04T08:45:03.480Z,15.98
2022-10-04T08:48:08.835Z,16.23
2022-10-04T08:51:52.195Z,16.35
2022-10-04T08:55:05.524Z,16.75
2022-10-04T08:58:01.580Z,16.08
2022-10-04T09:00:49.356Z,16.33
2022-10-04T09:04:28.299Z,16.58
2022-10-04T09:07:13.604Z,15.88
2022-10-04T09:10:37.486Z,15.07
2022-10-04T09:13:37.826Z,15.27
2022-10-04T09:16:20.596Z,15.98
2022-10-04T09:19:21.674Z,15.18
2022-10-04T09:22:19.259Z,15.50
2022-10-04T09:25:24.462Z,15.48
2022-10-04T09:28:39.323Z,14.52
2022-10-04T09:31:46.136Z,13.80
2022-10-04T09:34:52.101Z,13.57
2022-10-04T09:37:41.916Z,12.93
2022-10-04T09:41:12.375Z,13.20
2022-10-04T09:44:36.953Z,13.18
2022-10-04T09:47:31.114Z,13.45
2022-10-04T09:50:52.712Z,13.40
2022-10-04T09:53:45.114Z,14.02
2022-10-04T09:56:37.959Z,13.38
2022-10-04T09:59:37.358Z,13.48
2022-10-04T10:02:43.673Z,13.32
2022-10-04T10:05:38.163Z,13.23
2022-10-04T10:08:22.822Z,12.88
2022-10-04T10:11:22.848Z,12.85
2022-10-04T10:14:41.402Z,13.00
2022-10-04T10:17:17.721Z,12.88
2022-10-04T10:20:44.401Z,12.10
2022-10-04T10:24:08.849Z,13.00
2022-10-04T10:26:56.086Z,11.70
2022-10-04T10:29:47.050Z,11.63
2022-10-04T10:32:40.315Z,12.27
2022-10-04T10:35:26.104Z,12.32
2022-10-04T10:38:19.384Z,12.18
2022-10-04T10:41:05.205Z,11.82
2022-10-04T10:43:46.580Z,11.15
2022-10-04T10:46:42.907Z,10.90
2022-10-04T10:49:44.292Z,11.18
2022-10-04T10:53:09.578Z,11.73
2022-10-04T10:56:30.205Z,12.60
2022-10-04T11:00:00.208Z,12.45
2022-10-04T11:03:13.586Z,14.38
2022-10-04T11:06:30.976Z,13.32
2022-10-04T11:09:44.302Z,14.32
2022-10-04T11:12:55.909Z,14.40
2022-10-04T11:15:56.637Z,15.75
2022-10-04T11:22:12.419Z,16.50
2022-10-04T11:25:39.756Z,16.83
2022-10-04T11:28:19.533Z,16.33
2022-10-04T11:31:41.071Z,16.07
2022-10-04T11:34:59.759Z,16.88
2022-10-04T11:37:48.434Z,15.38
2022-10-04T11:40:32.938Z,15.73
2022-10-04T11:43:35.999Z,15.57
2022-10-04T11:46:22.403Z,14.90
2022-10-04T11:49:11.812Z,15.35
2022-10-04T11:52:34.318Z,14.65
2022-10-04T11:55:37.071Z,13.88
2022-10-04T11:58:15.707Z,15.57
2022-10-04T12:01:22.147Z,15.32
2022-10-04T12:04:22.187Z,14.70
2022-10-04T12:07:22.602Z,15.10
2022-10-04T12:10:02.978Z,14.18
2022-10-04T12:12:55.015Z,13.25
2022-10-04T12:16:02.060Z,15.18
2022-10-04T12:19:21.283Z,13.57
2022-10-04T12:22:16.729Z,13.90
2022-10-04T12:25:20.339Z,13.48
2022-10-04T12:28:18.463Z,13.45
2022-10-04T12:31:13.721Z,13.25
2022-10-04T12:33:54.047Z,13.55
2022-10-04T12:36:50.872Z,14.48
2022-10-04T12:39:32.640Z,13.52
2022-10-04T12:42:20.640Z,12.80
2022-10-04T12:45:07.174Z,13.80
2022-10-04T12:48:05.197Z,11.88
2022-10-04T12:50:55.110Z,12.13
2022-10-04T12:53:37.788Z,12.13
2022-10-04T12:56:19.061Z,11.68
2022-10-04T12:59:04.113Z,10.88
2022-10-04T13:01:40.427Z,10.88
2022-10-04T13:04:30.459Z,11.00
2022-10-04T13:07:19.802Z,9.98
2022-10-04T13:10:23.721Z,10.38
2022-10-04T13:13:59.647Z,10.43
2022-10-04T13:19:40.432Z,10.80
2022-10-04T13:22:58.161Z,10.82
2022-10-04T13:25:45.687Z,11.48
2022-10-04T13:28:24.672Z,11.35
2022-10-04T13:31:04.219Z,11.43
2022-10-04T13:33:42.976Z,10.60
2022-10-04T13:36:19.689Z,10.88
2022-10-04T13:39:20.623Z,12.82
2022-10-04T13:44:57.275Z,10.70
2022-10-04T13:47:49.006Z,10.50
2022-10-04T13:50:47.463Z,11.93
2022-10-04T13:53:49.613Z,11.30
2022-10-04T13:56:58.428Z,10.68
2022-10-04T13:59:42.235Z,10.25
2022-10-04T14:02:55.473Z,10.10
2022-10-04T14:06:14.459Z,9.93
2022-10-04T14:09:11.735Z,10.32
2022-10-04T14:12:26.039Z,10.65
2022-10-04T14:15:46.164Z,10.20
2022-10-04T14:19:14.145Z,9.98
2022-10-04T14:22:12.747Z,9.65
2022-10-04T14:25:32.669Z,9.63
2022-10-04T14:29:01.886Z,10.50
2022-10-04T14:32:07.792Z,10.95
2022-10-04T14:34:58.129Z,10.25
2022-10-04T14:38:12.477Z,10.18
2022-10-04T14:41:35.706Z,11.18
2022-10-04T14:44:45.190Z,11.70
2022-10-04T14:48:03.351Z,11.02
2022-10-04T14:50:44.643Z,11.57
2022-10-04T14:53:27.605Z,10.68
2022-10-04T14:56:59.217Z,10.93
2022-10-04T14:59:50.515Z,11.52
2022-10-04T15:02:48.423Z,11.50
2022-10-04T15:06:06.416Z,11.70
2022-10-04T15:09:01.487Z,11.27
2022-10-04T15:11:57.553Z,10.55
2022-10-04T15:14:43.449Z,10.45
2022-10-04T15:17:26.915Z,10.95
2022-10-04T15:20:06.317Z,12.02
2022-10-04T15:22:43.149Z,11.77
2022-10-04T15:25:41.425Z,12.13
2022-10-04T15:28:54.058Z,12.15
2022-10-04T15:31:33.600Z,11.48
2022-10-04T15:34:15.188Z,11.80
2022-10-04T15:37:10.109Z,11.63
2022-10-04T15:40:11.156Z,10.80
2022-10-04T15:42:41.830Z,11.60
2022-10-04T15:48:34.833Z,11.25
2022-10-04T15:51:17.331Z,11.40
2022-10-04T15:53:59.090Z,11.25
2022-10-04T15:56:37.708Z,10.95
2022-10-04T15:59:39.083Z,11.38
2022-10-04T16:02:46.713Z,10.57
2022-10-04T16:05:26.747Z,11.38
2022-10-04T16:08:42.369Z,11.80
2022-10-04T16:11:48.064Z,11.95
2022-10-04T16:14:59.908Z,12.40
2022-10-04T16:17:48.851Z,11.15
2022-10-04T16:20:53.729Z,12.20
2022-10-04T16:23:35.051Z,11.70
2022-10-04T16:26:06.831Z,11.32
2022-10-04T16:29:04.580Z,11.38
2022-10-04T16:31:48.941Z,11.55
2022-10-04T16:34:52.776Z,11.65
2022-10-04T16:37:34.467Z,11.85
2022-10-04T16:40:20.461Z,11.30
2022-10-04T16:42:57.588Z,11.35
2022-10-04T16:45:46.328Z,11.48
2022-10-04T16:48:29.098Z,11.15
2022-10-04T16:51:25.715Z,11.05
2022-10-04T16:54:06.542Z,10.48
2022-10-04T16:57:24.788Z,10.63
2022-10-04T16:59:58.687Z,10.32
2022-10-04T17:02:55.373Z,11.10
2022-10-04T17:06:03.537Z,10.20
2022-10-04T17:09:08.045Z,11.00
2022-10-04T17:11:48.020Z,10.63
2022-10-04T17:15:01.042Z,11.98
2022-10-04T17:17:46.461Z,11.90
2022-10-04T17:20:29.610Z,10.98
2022-10-04T17:23:14.849Z,11.43
2022-10-04T17:25:57.133Z,12.00
2022-10-04T17:28:31.325Z,11.98
2022-10-04T17:31:13.862Z,11.13
2022-10-04T17:33:57.915Z,11.38
2022-10-04T17:36:40.980Z,10.30
2022-10-04T17:39:44.479Z,10.45
2022-10-04T17:42:32.446Z,10.63
2022-10-04T17:45:29.036Z,9.98
2022-10-04T17:48:20.904Z,10.07
2022-10-04T17:51:17.029Z,8.73
2022-10-04T17:54:07.848Z,10.13
2022-10-04T17:59:14.631Z,7.97
2022-10-04T18:01:46.868Z,8.35
2022-10-04T18:04:20.465Z,8.48
2022-10-04T18:06:56.931Z,9.27
2022-10-04T18:09:33.553Z,9.23
2022-10-04T18:12:06.658Z,10.20
2022-10-04T18:14:59.219Z,9.57
2022-10-04T18:17:37.707Z,9.93
2022-10-04T18:20:40.409Z,8.98
2022-10-04T18:23:19.155Z,8.27
2022-10-04T18:25:48.974Z,9.57
2022-10-04T18:28:23.240Z,8.80
2022-10-04T18:31:01.862Z,8.70
2022-10-04T18:33:50.250Z,9.07
2022-10-04T18:36:23.533Z,7.63
2022-10-04T18:39:19.523Z,8.50
2022-10-04T18:42:01.706Z,7.53
2022-10-04T18:44:45.115Z,6.30
2022-10-04T18:47:27.593Z,5.63
2022-10-04T18:50:02.745Z,6.20
2022-10-04T18:52:48.265Z,5.07
2022-10-04T18:55:31.780Z,5.60
2022-10-04T18:58:28.184Z,5.90
2022-10-04T19:01:25.066Z,6.68
2022-10-04T19:04:03.629Z,6.38
2022-10-04T19:06:35.255Z,7.05
2022-10-04T19:09:14.252Z,6.63
2022-10-04T19:11:50.798Z,6.45
2022-10-04T19:14:30.256Z,5.95
2022-10-04T19:17:02.520Z,5.50
2022-10-04T19:19:43.673Z,5.05
2022-10-04T19:22:30.740Z,5.03
2022-10-04T19:25:36.470Z,5.03
2022-10-04T19:28:10.066Z,4.70
2022-10-04T19:31:03.547Z,5.13
2022-10-04T19:33:46.414Z,4.60
2022-10-04T19:36:32.537Z,4.30
2022-10-04T19:39:15.658Z,4.78
2022-10-04T19:41:55.779Z,4.40
2022-10-04T19:45:01.870Z,4.63
2022-10-04T19:47:45.925Z,4.47
2022-10-04T19:50:23.690Z,4.70
2022-10-04T19:52:59.417Z,4.40
2022-10-04T19:55:42.321Z,4.95
2022-10-04T19:58:27.811Z,5.05
2022-10-04T20:00:56.363Z,4.47
2022-10-04T20:03:24.967Z,4.85
2022-10-04T20:05:55.862Z,4.70
2022-10-04T20:08:57.974Z,4.47
2022-10-04T20:11:49.531Z,4.50
2022-10-04T20:14:46.992Z,4.60
2022-10-04T20:17:34.120Z,4.07
2022-10-04T20:20:03.090Z,3.95
2022-10-04T20:22:57.624Z,4.35
2022-10-04T20:26:02.523Z,4.05
2022-10-04T20:28:43.667Z,3.70
2022-10-04T20:31:53.230Z,4.13
2022-10-04T20:34:34.326Z,3.80
2022-10-04T20:37:03.965Z,4.07
2022-10-04T20:39:57.381Z,3.50
2022-10-04T20:42:36.528Z,3.60
2022-10-04T20:45:23.637Z,3.42
2022-10-04T20:47:54.789Z,3.97
2022-10-04T20:50:43.197Z,4.38
2022-10-04T20:53:21.546Z,4.10
2022-10-04T20:55:51.420Z,4.43
2022-10-04T20:58:32.250Z,5.00
2022-10-04T21:03:39.342Z,5.70
2022-10-04T21:06:11.459Z,4.53
2022-10-04T21:08:40.911Z,5.03
2022-10-04T21:11:20.386Z,4.90
2022-10-04T21:13:59.718Z,4.18
2022-10-04T21:16:40.125Z,4.60
2022-10-04T21:19:48.158Z,4.53
2022-10-04T21:22:36.557Z,4.60
2022-10-04T21:25:28.136Z,4.05
2022-10-04T21:28:27.858Z,4.15
2022-10-04T21:30:56.173Z,4.65
2022-10-04T21:33:27.181Z,4.35
2022-10-04T21:35:55.547Z,4.35
2022-10-04T21:38:23.832Z,4.05
2022-10-04T21:40:52.078Z,4.53
2022-10-04T21:43:20.341Z,4.50
2022-10-04T21:45:50.025Z,4.38
2022-10-04T21:48:21.712Z,4.20
2022-10-04T21:50:51.643Z,4.63
2022-10-04T21:53:20.716Z,4.72
2022-10-04T21:55:49.128Z,4.57
2022-10-04T21:58:17.513Z,4.82
2022-10-04T22:00:46.059Z,4.60
2022-10-04T22:03:15.765Z,4.97
2022-10-04T22:05:44.004Z,4.70
2022-10-04T22:08:12.343Z,4.82
2022-10-04T22:10:41.031Z,4.95
2022-10-04T22:13:09.305Z,5.35
2022-10-04T22:15:37.564Z,4.90
2022-10-04T22:18:06.172Z,5.15
2022-10-04T22:20:35.862Z,5.00
2022-10-04T22:23:07.794Z,5.23
2022-10-04T22:25:36.054Z,4.80
2022-10-04T22:28:16.221Z,4.55
2022-10-04T22:30:45.993Z,4.28
2022-10-04T22:33:29.677Z,4.43
2022-10-04T22:36:00.840Z,4.90
2022-10-04T22:38:29.068Z,4.30
2022-10-04T22:40:57.288Z,4.57
2022-10-04T22:43:25.612Z,4.53
2022-10-04T22:45:55.480Z,4.80
2022-10-04T22:48:26.623Z,4.60
2022-10-04T22:50:54.905Z,5.00
2022-10-04T22:53:25.223Z,4.88
2022-10-04T22:55:55.919Z,4.78
2022-10-04T23:00:52.390Z,4.78
2022-10-04T23:03:31.241Z,4.40
2022-10-04T23:06:00.365Z,4.55
2022-10-04T23:08:30.822Z,4.68
2022-10-04T23:11:01.234Z,4.30
2022-10-04T23:13:29.517Z,4.50
2022-10-04T23:16:01.098Z,4.22
2022-10-04T23:18:30.545Z,4.45
2022-10-04T23:21:02.518Z,4.47
2022-10-04T23:23:32.578Z,4.68
2022-10-04T23:26:00.807Z,4.55
2022-10-04T23:28:29.050Z,4.40
2022-10-04T23:31:05.704Z,4.95
2022-10-04T23:33:34.112Z,4.90
2022-10-04T23:36:02.302Z,4.57
2022-10-04T23:38:31.932Z,4.60
2022-10-04T23:41:00.573Z,4.50
2022-10-04T23:43:31.710Z,5.68
2022-10-04T23:46:00.047Z,5.03
2022-10-04T23:48:31.966Z,4.30
2022-10-04T23:51:00.948Z,4.85
2022-10-04T23:53:32.521Z,4.82
2022-10-04T23:56:05.016Z,4.40
2022-10-04T23:58:37.599Z,4.78
